Time;durP1;ratioP1;P1;durP2;ratioP2;P2;SDS_P1;SDS_P2;PMS_P1;PMS_P2;Temp;Humidity;BMP_temperature;BMP_pressure;BME280_temperature;BME280_humidity;BME280_pressure;Samples;Min_cycle;Max_cycle;Signal;HPM_P1;HPM_P2
2022/12/11 00:01:09;;;;;;;40.40;23.62;;;-1.40;99.90;;;;;;4725457;28;9999816;-78
2022/12/11 00:03:35;;;;;;;40.47;23.67;;;-1.40;99.90;;;;;;5071843;28;20561;-78
2022/12/11 00:06:06;;;;;;;40.58;24.05;;;-1.50;99.90;;;;;;5073473;28;20024;-78
2022/12/11 00:08:31;;;;;;;37.88;23.05;;;-1.40;99.90;;;;;;5076514;28;20028;-78
2022/12/11 00:10:57;;;;;;;41.42;23.30;;;-1.50;99.90;;;;;;5079672;28;20460;-78
2022/12/11 00:13:22;;;;;;;38.13;22.38;;;-1.50;99.90;;;;;;5076488;28;20036;-78
2022/12/11 00:15:48;;;;;;;41.63;24.38;;;-1.50;99.90;;;;;;5073253;28;20604;-79
2022/12/11 00:18:14;;;;;;;42.38;23.70;;;-1.50;99.90;;;;;;5078224;28;20060;-78
2022/12/11 00:20:40;;;;;;;46.10;25.05;;;-1.50;99.90;;;;;;5081125;28;20054;-78
2022/12/11 00:23:05;;;;;;;43.40;24.50;;;-1.50;99.90;;;;;;5076271;28;20533;-78
2022/12/11 00:25:31;;;;;;;47.42;26.63;;;-1.50;99.90;;;;;;5068768;28;20028;-78
2022/12/11 00:27:56;;;;;;;45.65;25.77;;;-1.50;99.90;;;;;;5073934;28;20016;-78
2022/12/11 00:30:22;;;;;;;41.97;24.45;;;-1.50;99.90;;;;;;5082273;28;20099;-78
2022/12/11 00:32:50;;;;;;;43.92;24.75;;;-1.50;99.90;;;;;;5072946;28;20035;-79
2022/12/11 00:35:16;;;;;;;43.50;24.40;;;-1.50;99.90;;;;;;5069907;28;20086;-79
2022/12/11 00:37:41;;;;;;;43.40;23.70;;;-1.50;99.90;;;;;;5070657;28;20064;-78
2022/12/11 00:40:08;;;;;;;39.00;21.83;;;-1.50;99.90;;;;;;5079733;28;20472;-79
2022/12/11 00:42:33;;;;;;;40.67;23.83;;;-1.60;99.90;;;;;;5071560;28;20059;-78
2022/12/11 00:44:59;;;;;;;40.58;23.35;;;-1.60;99.90;;;;;;5077122;28;20087;-78
2022/12/11 00:47:24;;;;;;;41.15;23.80;;;-1.60;99.90;;;;;;5080349;28;20028;-78
2022/12/11 00:49:50;;;;;;;43.00;24.38;;;-1.60;99.90;;;;;;5080846;28;20020;-78
2022/12/11 00:52:16;;;;;;;41.33;24.00;;;-1.60;99.90;;;;;;5078233;28;20020;-78
2022/12/11 00:54:42;;;;;;;39.78;23.38;;;-1.60;99.90;;;;;;5078279;28;20533;-78
2022/12/11 00:57:08;;;;;;;45.38;24.33;;;-1.60;99.90;;;;;;5078172;28;20033;-78
2022/12/11 00:59:33;;;;;;;43.15;24.25;;;-1.50;99.90;;;;;;5081667;28;20024;-77
2022/12/11 01:01:59;;;;;;;45.35;25.45;;;-1.60;99.90;;;;;;5075661;28;20036;-78
2022/12/11 01:04:24;;;;;;;46.22;25.85;;;-1.60;99.90;;;;;;5077282;28;20066;-78
2022/12/11 01:06:50;;;;;;;49.42;26.13;;;-1.50;99.90;;;;;;5077372;28;20027;-78
2022/12/11 01:12:00;;;;;;;42.53;23.70;;;-1.60;99.90;;;;;;5083892;28;20436;-78
2022/12/11 01:14:26;;;;;;;43.33;24.67;;;-1.60;99.90;;;;;;5069433;28;20028;-78
2022/12/11 01:16:51;;;;;;;47.80;25.35;;;-1.60;99.90;;;;;;5079702;28;20032;-79
2022/12/11 01:19:17;;;;;;;45.47;25.52;;;-1.40;99.90;;;;;;5079498;28;20028;-79
2022/12/11 01:21:42;;;;;;;45.72;26.52;;;-1.40;99.90;;;;;;5084841;28;20031;-79
2022/12/11 01:24:08;;;;;;;46.22;25.83;;;-1.40;99.90;;;;;;5076398;28;20109;-79
2022/12/11 01:26:34;;;;;;;49.65;27.00;;;-1.40;99.90;;;;;;5078215;28;20062;-79
2022/12/11 01:29:00;;;;;;;50.55;28.30;;;-1.30;99.90;;;;;;5078431;28;20028;-79
2022/12/11 01:31:26;;;;;;;49.85;27.63;;;-1.30;99.90;;;;;;5082749;28;20035;-79
2022/12/11 01:33:54;;;;;;;42.97;24.70;;;-1.30;99.90;;;;;;5078050;28;20377;-79
2022/12/11 01:36:21;;;;;;;39.90;24.23;;;-1.30;99.90;;;;;;5081139;28;20264;-79
2022/12/11 01:38:47;;;;;;;42.55;24.45;;;-1.30;99.90;;;;;;5082118;28;20047;-79
2022/12/11 01:41:14;;;;;;;46.35;26.05;;;-1.30;99.90;;;;;;5078489;28;20024;-78
2022/12/11 01:44:02;;;;;;;44.85;25.92;;;-1.30;99.90;;;;;;5079746;28;20103;-79
2022/12/11 01:46:32;;;;;;;43.20;25.38;;;-1.20;99.90;;;;;;5071191;28;20067;-78
2022/12/11 01:49:00;;;;;;;45.35;26.15;;;-1.20;99.90;;;;;;5078200;28;20486;-79
2022/12/11 01:51:27;;;;;;;44.80;25.67;;;-1.20;99.90;;;;;;5078106;28;20027;-79
2022/12/11 01:54:04;;;;;;;40.00;23.42;;;-1.20;99.90;;;;;;5075812;28;20482;-79
2022/12/11 01:56:31;;;;;;;42.33;23.75;;;-1.20;99.90;;;;;;5073706;28;20059;-79
2022/12/11 01:59:01;;;;;;;40.78;23.88;;;-1.20;99.90;;;;;;5080531;28;20044;-79
2022/12/11 02:01:41;;;;;;;41.20;23.23;;;-1.20;99.90;;;;;;5079449;28;20024;-79
2022/12/11 02:04:08;;;;;;;38.33;22.42;;;-1.10;99.90;;;;;;5074942;28;20020;-79
2022/12/11 02:06:41;;;;;;;38.25;21.27;;;-1.10;99.90;;;;;;5070255;28;20079;-78
2022/12/11 02:09:11;;;;;;;34.40;19.77;;;-1.00;99.90;;;;;;5074230;28;20165;-78
2022/12/11 02:12:05;;;;;;;32.90;19.15;;;-1.00;99.90;;;;;;5071525;28;20031;-79
2022/12/11 02:14:50;;;;;;;33.53;19.27;;;-0.90;99.90;;;;;;5073324;28;20032;-78
2022/12/11 02:17:22;;;;;;;36.00;20.52;;;-0.90;99.90;;;;;;5076715;28;20047;-79
2022/12/11 02:20:09;;;;;;;24.98;14.88;;;-0.90;99.90;;;;;;5072300;28;20029;-79
2022/12/11 02:23:11;;;;;;;34.42;19.27;;;-0.90;99.90;;;;;;5072749;28;20130;-78
2022/12/11 02:26:06;;;;;;;32.30;18.35;;;-0.90;99.90;;;;;;5071709;28;20043;-79
2022/12/11 02:28:58;;;;;;;31.63;18.55;;;-0.90;99.90;;;;;;5076745;28;20031;-79
2022/12/11 02:31:33;;;;;;;31.77;18.13;;;-0.70;99.90;;;;;;5078304;28;20036;-79
2022/12/11 02:34:13;;;;;;;28.67;15.20;;;-0.60;99.90;;;;;;5072992;28;20040;-79
2022/12/11 02:36:43;;;;;;;25.27;14.80;;;-0.40;99.90;;;;;;5082511;28;20111;-79
2022/12/11 02:39:13;;;;;;;23.23;14.55;;;-0.30;99.90;;;;;;5075552;28;20157;-79
2022/12/11 02:41:45;;;;;;;25.85;14.85;;;-0.10;99.90;;;;;;5080901;28;20567;-80
2022/12/11 02:44:13;;;;;;;25.50;15.07;;;0.00;99.90;;;;;;5071845;28;20186;-79
2022/12/11 02:46:39;;;;;;;22.42;13.18;;;0.00;99.90;;;;;;5076995;28;20140;-79
2022/12/11 02:49:07;;;;;;;25.25;14.50;;;0.10;99.90;;;;;;5077818;28;20031;-78
2022/12/11 02:51:37;;;;;;;28.33;15.32;;;0.10;99.90;;;;;;5075151;28;20032;-80
2022/12/11 02:54:07;;;;;;;31.45;18.02;;;0.10;99.90;;;;;;5067477;28;20961;-79
2022/12/11 02:56:39;;;;;;;31.10;19.02;;;0.10;99.90;;;;;;5075169;28;20040;-79
2022/12/11 02:59:11;;;;;;;32.95;19.90;;;0.10;99.90;;;;;;5071194;28;20123;-79
2022/12/11 03:01:37;;;;;;;33.90;20.23;;;0.10;99.90;;;;;;5071155;28;20032;-79
2022/12/11 03:04:03;;;;;;;37.28;21.10;;;0.00;99.90;;;;;;5071312;28;20050;-78
2022/12/11 03:06:41;;;;;;;36.13;20.88;;;0.00;99.90;;;;;;5080304;28;20031;-77
2022/12/11 03:09:07;;;;;;;34.63;20.25;;;0.00;99.90;;;;;;5081500;28;20042;-79
2022/12/11 03:11:32;;;;;;;37.38;21.80;;;0.00;99.90;;;;;;5080405;28;20028;-78
2022/12/11 03:14:01;;;;;;;37.00;21.27;;;0.00;99.90;;;;;;5077484;28;20684;-78
2022/12/11 03:16:38;;;;;;;33.63;18.40;;;0.00;99.90;;;;;;5075287;28;20433;-78
2022/12/11 03:19:26;;;;;;;33.47;18.92;;;0.00;99.90;;;;;;5077259;28;20557;-78
2022/12/11 03:22:07;;;;;;;34.00;18.25;;;-0.10;99.90;;;;;;5077600;28;20035;-78
2022/12/11 03:24:59;;;;;;;29.27;16.92;;;-0.10;99.90;;;;;;5073817;28;20028;-79
2022/12/11 03:27:45;;;;;;;25.67;16.38;;;-0.10;99.90;;;;;;5083402;28;20067;-79
2022/12/11 03:30:15;;;;;;;26.23;16.13;;;-0.10;99.90;;;;;;5082077;28;20028;-79
2022/12/11 03:32:51;;;;;;;24.70;15.38;;;-0.20;99.90;;;;;;5077041;28;20020;-78
2022/12/11 03:35:20;;;;;;;29.70;18.48;;;-0.30;99.90;;;;;;5079386;28;20056;-78
2022/12/11 03:37:48;;;;;;;34.35;20.05;;;-0.30;99.90;;;;;;5079786;28;20525;-79
2022/12/11 03:40:18;;;;;;;35.28;20.27;;;-0.40;99.90;;;;;;5078403;28;20504;-79
2022/12/11 03:42:47;;;;;;;38.92;23.30;;;-0.50;99.90;;;;;;5079554;28;20089;-79
2022/12/11 03:45:14;;;;;;;39.75;23.30;;;-0.60;99.90;;;;;;5078301;28;20044;-79
2022/12/11 03:47:42;;;;;;;38.83;23.15;;;-0.70;99.90;;;;;;5077227;28;20036;-79
2022/12/11 03:50:10;;;;;;;41.75;23.08;;;-0.70;99.90;;;;;;5078969;28;20140;-78
2022/12/11 03:52:40;;;;;;;38.97;23.35;;;-0.80;99.90;;;;;;5075901;28;20035;-78
2022/12/11 03:55:08;;;;;;;40.90;23.55;;;-0.80;99.90;;;;;;5072272;28;20031;-79
2022/12/11 03:57:36;;;;;;;42.45;24.67;;;-0.90;99.90;;;;;;5080139;28;20032;-79
2022/12/11 04:00:05;;;;;;;41.03;23.05;;;-0.90;99.90;;;;;;5075851;28;20064;-79
2022/12/11 04:02:30;;;;;;;40.95;23.38;;;-0.90;99.90;;;;;;5076219;28;20032;-78
2022/12/11 04:04:56;;;;;;;45.55;23.48;;;-0.90;99.90;;;;;;5076228;28;20035;-78
2022/12/11 04:07:22;;;;;;;41.88;24.02;;;-0.90;99.90;;;;;;5079115;28;20033;-78
2022/12/11 04:09:47;;;;;;;39.90;22.48;;;-0.90;99.90;;;;;;5075463;28;20508;-78
2022/12/11 04:12:13;;;;;;;43.08;24.20;;;-0.90;99.90;;;;;;5076834;28;20773;-78
2022/12/11 04:25:37;;;;;;;42.92;23.65;;;-0.90;99.90;;;;;;5072661;28;21006;-77
2022/12/11 04:28:03;;;;;;;39.85;22.65;;;-0.90;99.90;;;;;;5075565;28;20024;-78
2022/12/11 04:30:28;;;;;;;44.25;23.25;;;-0.90;99.90;;;;;;5077442;28;20032;-77
2022/12/11 04:32:54;;;;;;;44.00;24.25;;;-1.00;99.90;;;;;;5075481;28;20028;-78
2022/12/11 04:35:21;;;;;;;44.55;24.60;;;-0.90;99.90;;;;;;5079097;28;20059;-78
2022/12/11 04:37:46;;;;;;;44.08;24.10;;;-1.00;99.90;;;;;;5069213;28;20020;-78
2022/12/11 04:40:16;;;;;;;43.10;23.73;;;-0.90;99.90;;;;;;5080031;28;20032;-78
2022/12/11 04:42:41;;;;;;;42.58;23.88;;;-1.00;99.90;;;;;;5075144;28;20616;-77
2022/12/11 04:45:08;;;;;;;41.80;23.90;;;-1.00;99.90;;;;;;5077441;28;20070;-78
2022/12/11 04:47:35;;;;;;;44.40;25.08;;;-1.00;99.90;;;;;;5078208;28;20024;-78
2022/12/11 04:50:02;;;;;;;41.40;22.77;;;-1.00;99.90;;;;;;5081801;28;20064;-78
2022/12/11 04:52:27;;;;;;;42.38;24.45;;;-1.00;99.90;;;;;;5074478;28;20020;-78
2022/12/11 04:54:53;;;;;;;44.35;25.08;;;-1.00;99.90;;;;;;5072281;28;20035;-78
2022/12/11 04:57:20;;;;;;;46.10;24.75;;;-1.00;99.90;;;;;;5079152;28;20047;-78
2022/12/11 04:59:46;;;;;;;41.92;24.08;;;-1.00;99.90;;;;;;5081534;28;20040;-78
2022/12/11 05:02:11;;;;;;;42.28;23.83;;;-1.00;99.90;;;;;;5082663;28;20529;-77
2022/12/11 05:04:37;;;;;;;44.13;24.70;;;-1.00;99.90;;;;;;5070930;28;20055;-78
2022/12/11 05:07:03;;;;;;;42.88;23.90;;;-1.00;99.90;;;;;;5083261;28;20054;-79
2022/12/11 05:09:28;;;;;;;45.00;25.40;;;-1.10;99.90;;;;;;5084693;28;20013;-78
2022/12/11 05:11:54;;;;;;;44.13;24.23;;;-1.10;99.90;;;;;;5074524;28;20149;-78
2022/12/11 05:14:20;;;;;;;44.83;24.63;;;-1.10;99.90;;;;;;5077286;28;20036;-78
2022/12/11 05:16:46;;;;;;;43.78;23.73;;;-1.10;99.90;;;;;;5079053;28;20106;-78
2022/12/11 05:19:12;;;;;;;43.88;24.15;;;-1.10;99.90;;;;;;5081908;28;22091;-78
2022/12/11 05:21:38;;;;;;;45.08;25.50;;;-1.10;99.90;;;;;;5085558;28;20012;-77
2022/12/11 05:24:04;;;;;;;43.85;24.85;;;-1.10;99.90;;;;;;5081728;28;20143;-78
2022/12/11 05:26:30;;;;;;;44.55;24.42;;;-1.10;99.90;;;;;;5083274;28;20032;-78
2022/12/11 05:28:56;;;;;;;42.42;24.05;;;-1.00;99.90;;;;;;5082464;28;20019;-77
2022/12/11 05:31:24;;;;;;;41.42;23.65;;;-1.00;99.90;;;;;;5086344;28;20502;-78
2022/12/11 05:33:50;;;;;;;42.15;24.17;;;-1.00;99.90;;;;;;5075196;28;20025;-78
2022/12/11 05:36:28;;;;;;;43.47;24.88;;;-1.00;99.90;;;;;;5078068;28;20105;-78
2022/12/11 05:38:55;;;;;;;46.75;24.88;;;-1.00;99.90;;;;;;5081932;28;20020;-77
2022/12/11 05:41:23;;;;;;;43.15;23.60;;;-1.00;99.90;;;;;;5084070;28;20031;-78
2022/12/11 05:43:49;;;;;;;41.85;23.35;;;-0.90;99.90;;;;;;5075182;28;20182;-77
2022/12/11 05:46:20;;;;;;;39.97;22.75;;;-0.90;99.90;;;;;;5078949;28;20028;-78
2022/12/11 05:48:48;;;;;;;40.53;23.98;;;-0.90;99.90;;;;;;5079860;28;20036;-77
2022/12/11 05:51:14;;;;;;;43.53;23.95;;;-0.90;99.90;;;;;;5080381;28;20022;-77
2022/12/11 05:53:41;;;;;;;41.47;23.27;;;-0.90;99.90;;;;;;5076724;28;20020;-77
2022/12/11 05:56:18;;;;;;;41.15;24.05;;;-0.90;99.90;;;;;;5081151;28;20666;-78
2022/12/11 05:58:45;;;;;;;43.13;25.10;;;-0.90;99.90;;;;;;5080882;28;20058;-78
2022/12/11 06:01:15;;;;;;;41.67;24.38;;;-0.90;99.90;;;;;;5078331;28;20443;-78
2022/12/11 06:03:40;;;;;;;44.38;24.17;;;-0.90;99.90;;;;;;5079648;28;20849;-78
2022/12/11 06:06:07;;;;;;;44.03;25.00;;;-0.90;99.90;;;;;;5077685;28;20024;-77
2022/12/11 06:08:33;;;;;;;47.28;24.80;;;-0.90;99.90;;;;;;5081184;28;20016;-77
2022/12/11 06:10:59;;;;;;;42.35;24.10;;;-0.90;99.90;;;;;;5080002;28;20024;-78
2022/12/11 06:13:25;;;;;;;41.47;23.65;;;-0.90;99.90;;;;;;5078961;28;20027;-78
2022/12/11 06:15:51;;;;;;;44.33;24.40;;;-0.90;99.90;;;;;;5078590;28;20544;-78
2022/12/11 06:18:17;;;;;;;41.38;23.70;;;-0.90;99.90;;;;;;5073935;28;20723;-78
2022/12/11 06:20:42;;;;;;;43.53;24.75;;;-0.90;99.90;;;;;;5076863;28;20110;-78
2022/12/11 06:23:08;;;;;;;52.92;24.88;;;-0.90;99.90;;;;;;5071893;28;20401;-78
2022/12/11 06:25:34;;;;;;;51.03;23.60;;;-0.90;99.90;;;;;;5076219;28;20044;-77
2022/12/11 06:28:00;;;;;;;41.67;23.40;;;-0.90;99.90;;;;;;5072857;28;20034;-78
2022/12/11 06:30:25;;;;;;;43.42;23.23;;;-0.90;99.90;;;;;;5076947;28;20051;-78
2022/12/11 06:32:51;;;;;;;44.42;23.58;;;-0.90;99.90;;;;;;5074352;28;20020;-78
2022/12/11 06:35:17;;;;;;;42.67;23.15;;;-0.90;99.90;;;;;;5074203;28;20033;-78
2022/12/11 06:37:42;;;;;;;42.50;23.52;;;-1.00;99.90;;;;;;5069193;28;20198;-78
2022/12/11 06:40:10;;;;;;;43.63;24.23;;;-1.00;99.90;;;;;;5075683;28;20155;-78
2022/12/11 06:42:36;;;;;;;43.63;23.92;;;-1.00;99.90;;;;;;5072449;28;20043;-78
2022/12/11 06:45:02;;;;;;;39.28;22.00;;;-0.90;99.90;;;;;;5077601;28;20048;-78
2022/12/11 06:47:29;;;;;;;40.72;22.90;;;-0.90;99.90;;;;;;5075154;28;20024;-78
2022/12/11 06:49:55;;;;;;;44.92;24.10;;;-0.90;99.90;;;;;;5077829;28;20039;-78
2022/12/11 06:52:26;;;;;;;43.53;23.48;;;-0.90;99.90;;;;;;5078995;28;20028;-77
2022/12/11 06:54:52;;;;;;;45.60;24.50;;;-0.90;99.90;;;;;;5075202;28;20098;-78
2022/12/11 06:57:18;;;;;;;43.85;24.20;;;-0.90;99.90;;;;;;5074747;28;20115;-78
2022/12/11 06:59:44;;;;;;;46.15;25.50;;;-0.90;99.90;;;;;;5075883;28;20131;-76
2022/12/11 07:02:19;;;;;;;45.22;24.52;;;-1.10;99.90;;;;;;5076812;28;20933;-76
2022/12/11 07:04:45;;;;;;;43.35;25.08;;;-1.00;99.90;;;;;;5077275;28;20035;-76
2022/12/11 07:07:11;;;;;;;45.55;25.20;;;-1.00;99.90;;;;;;5085409;28;20027;-76
2022/12/11 07:09:38;;;;;;;44.97;25.27;;;-1.00;99.90;;;;;;5081592;28;20028;-76
2022/12/11 07:12:05;;;;;;;42.47;23.80;;;-1.00;99.90;;;;;;5075380;28;20589;-76
2022/12/11 07:14:32;;;;;;;48.08;24.42;;;-1.00;99.90;;;;;;5074249;28;20078;-76
2022/12/11 07:16:58;;;;;;;50.83;25.83;;;-1.00;99.90;;;;;;5071670;28;20040;-76
2022/12/11 07:19:24;;;;;;;45.08;23.55;;;-1.00;99.90;;;;;;4351436;28;10001157;-77
2022/12/11 07:21:50;;;;;;;43.72;24.98;;;-1.00;99.90;;;;;;5039936;28;20044;-77
2022/12/11 07:24:16;;;;;;;46.60;25.02;;;-1.00;99.90;;;;;;5050683;28;20041;-77
2022/12/11 07:26:42;;;;;;;50.78;26.05;;;-1.00;99.90;;;;;;5047031;28;20086;-77
2022/12/11 07:29:08;;;;;;;45.67;25.73;;;-1.00;99.90;;;;;;5043009;28;20025;-77
2022/12/11 07:31:33;;;;;;;47.58;25.33;;;-1.00;99.90;;;;;;5044111;28;20720;-77
2022/12/11 07:34:04;;;;;;;44.08;25.55;;;-1.00;99.90;;;;;;5047652;28;20155;-77
2022/12/11 07:36:31;;;;;;;45.88;25.02;;;-0.90;99.90;;;;;;5059446;28;20050;-77
2022/12/11 07:38:58;;;;;;;46.17;25.50;;;-0.90;99.90;;;;;;5063093;28;20538;-77
2022/12/11 07:41:26;;;;;;;45.95;26.08;;;-0.90;99.90;;;;;;5051476;28;20025;-77
2022/12/11 07:43:52;;;;;;;48.38;24.70;;;-0.90;99.90;;;;;;5042799;28;20705;-76
2022/12/11 07:46:21;;;;;;;48.63;25.83;;;-0.90;99.90;;;;;;5046751;28;20399;-76
2022/12/11 07:48:47;;;;;;;49.13;27.17;;;-0.90;99.90;;;;;;5044996;28;20024;-77
2022/12/11 07:51:16;;;;;;;48.90;26.67;;;-0.90;99.90;;;;;;5059584;28;20141;-77
2022/12/11 07:53:44;;;;;;;46.17;25.35;;;-0.90;99.90;;;;;;5053393;28;20039;-77
2022/12/11 07:56:09;;;;;;;46.92;25.98;;;-0.80;99.90;;;;;;5057832;28;20084;-77
2022/12/11 07:58:37;;;;;;;45.42;26.23;;;-0.80;99.90;;;;;;5060512;28;20565;-76
2022/12/11 08:01:24;;;;;;;45.75;25.17;;;-0.80;99.90;;;;;;5051604;28;20024;-77
2022/12/11 08:03:51;;;;;;;49.30;26.88;;;-0.80;99.90;;;;;;5053419;28;20032;-77
2022/12/11 08:06:17;;;;;;;48.72;26.08;;;-0.80;99.90;;;;;;5053919;28;20029;-77
2022/12/11 08:08:43;;;;;;;48.08;26.40;;;-0.80;99.90;;;;;;5065431;28;20118;-77
2022/12/11 08:11:12;;;;;;;48.33;25.73;;;-0.80;99.90;;;;;;5061275;28;20024;-76
2022/12/11 08:13:38;;;;;;;48.15;26.60;;;-0.80;99.90;;;;;;5055612;28;20068;-76
2022/12/11 08:16:06;;;;;;;50.60;27.90;;;-0.80;99.90;;;;;;5050753;28;20032;-76
2022/12/11 08:18:33;;;;;;;53.30;28.08;;;-0.80;99.90;;;;;;5052252;28;20028;-76
2022/12/11 08:21:03;;;;;;;54.90;27.23;;;-0.80;99.90;;;;;;5060272;28;20063;-76
2022/12/11 08:23:28;;;;;;;49.50;26.60;;;-0.80;99.90;;;;;;5059542;28;20041;-76
2022/12/11 08:25:54;;;;;;;45.75;25.73;;;-0.70;99.90;;;;;;5058503;28;20056;-77
2022/12/11 08:28:20;;;;;;;46.83;26.05;;;-0.70;99.90;;;;;;5060868;28;20032;-76
2022/12/11 08:30:45;;;;;;;52.72;29.30;;;-0.70;99.90;;;;;;5060118;28;20021;-77
2022/12/11 08:33:11;;;;;;;53.17;28.25;;;-0.70;99.90;;;;;;5056100;28;20875;-72
2022/12/11 08:35:40;;;;;;;49.05;26.05;;;-0.70;99.90;;;;;;5050651;28;20039;-76
2022/12/11 08:38:06;;;;;;;60.90;34.78;;;-0.60;99.90;;;;;;5056182;28;20039;-78
2022/12/11 08:40:31;;;;;;;59.40;32.25;;;-0.70;99.90;;;;;;5071202;28;20028;-78
2022/12/11 08:42:57;;;;;;;70.53;33.92;;;-0.60;99.90;;;;;;5066624;28;20052;-78
2022/12/11 08:45:22;;;;;;;64.85;31.52;;;-0.70;99.90;;;;;;5082576;28;20078;-78
2022/12/11 08:47:48;;;;;;;54.47;28.33;;;-0.70;99.90;;;;;;5079276;28;20023;-78
2022/12/11 08:50:14;;;;;;;58.05;31.27;;;-0.60;99.90;;;;;;5088323;28;20036;-79
2022/12/11 08:52:39;;;;;;;57.42;30.88;;;-0.60;99.90;;;;;;5084379;28;20028;-78
2022/12/11 08:55:05;;;;;;;47.45;26.80;;;-0.60;99.90;;;;;;5086330;28;20036;-78
2022/12/11 08:57:31;;;;;;;47.22;27.13;;;-0.60;99.90;;;;;;5077642;28;20035;-78
2022/12/11 08:59:56;;;;;;;48.70;26.17;;;-0.60;99.90;;;;;;5084506;28;20020;-78
2022/12/11 09:02:22;;;;;;;49.17;26.70;;;-0.60;99.90;;;;;;5083295;28;20119;-79
2022/12/11 09:04:48;;;;;;;52.78;29.00;;;-0.60;99.90;;;;;;5073690;28;20486;-78
2022/12/11 09:07:13;;;;;;;53.20;28.85;;;-0.60;99.90;;;;;;5084940;28;20075;-79
2022/12/11 09:09:39;;;;;;;50.47;27.42;;;-0.60;99.90;;;;;;5079506;28;20062;-78
2022/12/11 09:12:04;;;;;;;48.40;27.75;;;-0.60;99.90;;;;;;5082233;28;20052;-78
2022/12/11 09:14:30;;;;;;;47.25;26.13;;;-0.60;99.90;;;;;;5069620;28;20020;-78
2022/12/11 09:16:56;;;;;;;49.05;27.00;;;-0.60;99.90;;;;;;5088038;28;20044;-78
2022/12/11 09:19:21;;;;;;;50.10;27.00;;;-0.50;99.90;;;;;;5088933;28;20047;-78
2022/12/11 09:21:47;;;;;;;51.70;29.23;;;-0.50;99.90;;;;;;5085117;28;20028;-78
2022/12/11 09:24:13;;;;;;;50.67;27.90;;;-0.60;99.90;;;;;;5086744;28;20030;-77
2022/12/11 09:26:40;;;;;;;51.75;27.77;;;-0.50;99.90;;;;;;5086833;28;20067;-78
2022/12/11 09:29:06;;;;;;;52.85;28.67;;;-0.50;99.90;;;;;;5088744;28;20111;-78
2022/12/11 09:31:35;;;;;;;53.67;29.27;;;-0.60;99.90;;;;;;5086280;28;20040;-77
2022/12/11 09:34:04;;;;;;;51.00;28.88;;;-0.60;99.90;;;;;;5083667;28;20747;-77
2022/12/11 09:36:30;;;;;;;51.10;28.17;;;-0.50;99.90;;;;;;5086639;28;20046;-77
2022/12/11 09:39:00;;;;;;;53.33;28.50;;;-0.60;99.90;;;;;;5080751;28;20077;-77
2022/12/11 09:41:36;;;;;;;51.20;26.80;;;-0.50;99.90;;;;;;5091984;28;20081;-77
2022/12/11 09:44:15;;;;;;;51.13;28.00;;;-0.60;99.90;;;;;;5085875;28;20135;-77
2022/12/11 09:46:41;;;;;;;53.70;28.10;;;-0.60;99.90;;;;;;5083934;28;20089;-78
2022/12/11 09:49:37;;;;;;;54.20;28.05;;;-0.60;99.90;;;;;;5082182;28;20639;-77
2022/12/11 09:52:13;;;;;;;55.65;29.30;;;-0.60;99.90;;;;;;5069680;28;20409;-77
2022/12/11 09:54:49;;;;;;;56.63;29.65;;;-0.60;99.90;;;;;;5079967;28;20043;-78
2022/12/11 09:57:24;;;;;;;55.58;30.17;;;-0.60;99.90;;;;;;5088955;28;20051;-77
2022/12/11 10:00:14;;;;;;;56.70;30.58;;;-0.50;99.90;;;;;;5083184;28;20707;-78
2022/12/11 10:02:56;;;;;;;54.92;28.98;;;-0.60;99.90;;;;;;5082729;28;20036;-78
2022/12/11 10:06:13;;;;;;;45.47;24.42;;;-0.50;99.90;;;;;;5076780;28;20030;-78
2022/12/11 10:08:41;;;;;;;57.95;30.08;;;-0.40;99.90;;;;;;5067484;28;20043;-77
2022/12/11 10:11:33;;;;;;;54.25;29.10;;;-0.40;99.90;;;;;;5083816;28;20012;-78
2022/12/11 10:14:11;;;;;;;49.60;27.98;;;-0.40;99.90;;;;;;5080060;28;20032;-78
2022/12/11 10:16:43;;;;;;;47.10;26.58;;;-0.40;99.90;;;;;;5086658;28;20089;-76
2022/12/11 10:19:21;;;;;;;52.88;27.65;;;-0.30;99.90;;;;;;5082087;28;20026;-78
2022/12/11 10:21:49;;;;;;;51.60;27.60;;;-0.30;99.90;;;;;;5085274;28;20040;-78
2022/12/11 10:24:26;;;;;;;55.33;28.77;;;-0.30;99.90;;;;;;5073952;28;20032;-77
2022/12/11 10:26:58;;;;;;;53.70;28.77;;;-0.30;99.90;;;;;;5085609;28;20032;-77
2022/12/11 10:29:25;;;;;;;49.25;27.20;;;-0.30;99.90;;;;;;5084602;28;20067;-77
2022/12/11 10:31:57;;;;;;;49.97;27.65;;;-0.30;99.90;;;;;;5080596;28;20054;-77
2022/12/11 10:34:39;;;;;;;58.00;27.95;;;-0.30;99.90;;;;;;5081786;28;20074;-78
2022/12/11 10:37:05;;;;;;;57.42;29.75;;;-0.30;99.90;;;;;;5076906;28;20618;-77
2022/12/11 10:39:31;;;;;;;51.88;28.73;;;-0.30;99.90;;;;;;5075987;28;20103;-78
2022/12/11 10:41:57;;;;;;;54.03;28.20;;;-0.30;99.90;;;;;;5077604;28;20102;-77
2022/12/11 10:44:28;;;;;;;59.70;30.15;;;-0.30;99.90;;;;;;5086450;28;20071;-77
2022/12/11 10:47:08;;;;;;;58.03;29.70;;;-0.30;99.90;;;;;;5081999;28;20700;-77
2022/12/11 10:49:36;;;;;;;56.42;28.35;;;-0.30;99.90;;;;;;5082345;28;20101;-77
2022/12/11 10:52:23;;;;;;;52.88;28.77;;;-0.30;99.90;;;;;;5078497;28;20020;-78
2022/12/11 10:55:00;;;;;;;53.30;28.45;;;-0.30;99.90;;;;;;5076398;28;20024;-77
2022/12/11 10:57:31;;;;;;;57.10;29.15;;;-0.20;99.90;;;;;;5077825;28;20040;-77
2022/12/11 10:59:58;;;;;;;54.97;28.77;;;-0.20;99.90;;;;;;5079595;28;20031;-76
2022/12/11 11:02:28;;;;;;;54.67;29.20;;;-0.20;99.90;;;;;;5081946;28;20031;-77
2022/12/11 11:04:55;;;;;;;51.78;27.88;;;-0.20;99.90;;;;;;5084915;28;20177;-77
2022/12/11 11:07:27;;;;;;;53.00;28.63;;;-0.20;99.90;;;;;;5082544;28;20028;-77
2022/12/11 11:10:11;;;;;;;57.50;29.83;;;-0.20;99.90;;;;;;5079827;28;20084;-78
2022/12/11 11:12:46;;;;;;;49.10;26.98;;;-0.20;99.90;;;;;;5075259;28;20096;-77
2022/12/11 11:15:19;;;;;;;56.50;28.90;;;-0.20;99.90;;;;;;5078023;28;20024;-78
2022/12/11 11:17:55;;;;;;;55.05;28.35;;;-0.20;99.90;;;;;;5084758;28;20028;-78
2022/12/11 11:20:27;;;;;;;52.05;27.20;;;-0.20;99.90;;;;;;5078654;28;20028;-77
2022/12/11 11:22:56;;;;;;;54.33;28.23;;;-0.20;99.90;;;;;;5084038;28;20504;-77
2022/12/11 11:25:25;;;;;;;60.30;29.38;;;-0.20;99.90;;;;;;5077823;28;20394;-77
2022/12/11 11:27:57;;;;;;;61.38;30.65;;;-0.20;99.90;;;;;;5084244;28;20031;-77
2022/12/11 11:30:27;;;;;;;57.10;29.80;;;-0.20;99.90;;;;;;5086064;28;20028;-78
2022/12/11 11:33:01;;;;;;;53.50;28.83;;;-0.20;99.90;;;;;;5074957;28;20669;-78
2022/12/11 11:35:28;;;;;;;59.45;31.45;;;-0.30;99.90;;;;;;5081072;28;20402;-77
2022/12/11 11:38:19;;;;;;;61.67;32.03;;;-0.30;99.90;;;;;;5078377;28;20027;-78
2022/12/11 11:40:57;;;;;;;66.30;32.58;;;-0.20;99.90;;;;;;5067133;28;20055;-74
2022/12/11 11:43:51;;;;;;;57.17;29.63;;;-0.20;99.90;;;;;;5078998;28;20047;-75
2022/12/11 11:46:43;;;;;;;59.30;31.52;;;-0.20;99.90;;;;;;5071078;28;20036;-75
2022/12/11 11:49:17;;;;;;;59.17;30.55;;;-0.10;99.90;;;;;;5077117;28;20128;-74
2022/12/11 11:51:52;;;;;;;60.05;30.05;;;-0.10;99.90;;;;;;5080573;28;20017;-75
2022/12/11 11:54:33;;;;;;;63.25;31.58;;;-0.10;99.90;;;;;;5081140;28;20028;-75
2022/12/11 11:57:04;;;;;;;55.20;29.80;;;-0.10;99.90;;;;;;5079309;28;20069;-75
2022/12/11 11:59:35;;;;;;;55.47;28.98;;;-0.10;99.90;;;;;;5074561;28;20099;-75
2022/12/11 12:02:01;;;;;;;55.95;29.67;;;-0.20;99.90;;;;;;5081225;28;20438;-75
2022/12/11 12:04:32;;;;;;;58.33;30.00;;;-0.10;99.90;;;;;;5072844;28;20032;-76
2022/12/11 12:07:07;;;;;;;60.55;31.42;;;-0.10;99.90;;;;;;5078367;28;20085;-75
2022/12/11 12:10:10;;;;;;;56.58;29.38;;;-0.10;99.90;;;;;;5077522;28;20090;-75
2022/12/11 12:12:41;;;;;;;48.57;23.23;;;0.00;99.90;;;;;;5078341;28;20032;-76
2022/12/11 12:15:22;;;;;;;55.97;28.55;;;0.00;99.90;;;;;;5077732;28;20277;-75
2022/12/11 12:17:53;;;;;;;52.17;28.15;;;0.00;99.90;;;;;;5075749;28;20064;-75
2022/12/11 12:20:41;;;;;;;57.85;29.50;;;0.00;99.90;;;;;;5075424;28;20560;-75
2022/12/11 12:23:43;;;;;;;49.75;27.80;;;0.00;99.90;;;;;;4753200;28;10000950;-81
2022/12/11 12:26:31;;;;;;;61.70;30.02;;;0.00;99.90;;;;;;5074451;28;20252;-80
2022/12/11 12:29:03;;;;;;;58.28;30.23;;;0.00;99.90;;;;;;5073276;28;20027;-82
2022/12/11 12:31:41;;;;;;;58.85;30.23;;;0.00;99.90;;;;;;5080814;28;20570;-84
2022/12/11 12:34:28;;;;;;;57.53;29.17;;;0.00;99.90;;;;;;5068468;28;20042;-81
2022/12/11 12:36:56;;;;;;;56.95;29.75;;;0.00;99.90;;;;;;5067946;28;20268;-82
2022/12/11 12:39:47;;;;;;;61.35;30.88;;;0.00;99.90;;;;;;5066926;28;20031;-79
2022/12/11 12:42:43;;;;;;;57.20;29.25;;;0.00;99.90;;;;;;5075891;28;20035;-81
2022/12/11 12:45:16;;;;;;;57.42;29.73;;;0.00;99.90;;;;;;5074754;28;20181;-78
2022/12/11 12:47:45;;;;;;;56.90;28.38;;;-0.10;99.90;;;;;;5085005;28;20020;-75
2022/12/11 12:50:23;;;;;;;61.55;31.58;;;-0.10;99.90;;;;;;5080359;28;20039;-79
2022/12/11 12:52:51;;;;;;;58.72;29.38;;;-0.10;99.90;;;;;;5074123;28;20029;-75
2022/12/11 12:55:27;;;;;;;56.67;29.02;;;-0.10;99.90;;;;;;5074098;28;20039;-75
2022/12/11 12:58:01;;;;;;;53.45;28.10;;;-0.10;99.90;;;;;;5075571;28;20032;-75